sensor_id;sensor_type;location;lat;lon;timestamp;pressure;altitude;pressure_sealevel;temperature;humidity
30967;BME280;17649;51.836;8.330;2023-09-18T00:01:40;100343.53;;;19.48;100.00
30967;BME280;17649;51.836;8.330;2023-09-18T00:04:40;100333.03;;;19.48;100.00
30967;BME280;17649;51.836;8.330;2023-09-18T00:07:44;100331.53;;;19.46;100.00
30967;BME280;17649;51.836;8.330;2023-09-18T00:10:54;100339.41;;;19.46;100.00
30967;BME280;17649;51.836;8.330;2023-09-18T00:13:55;100328.09;;;19.45;100.00
30967;BME280;17649;51.836;8.330;2023-09-18T00:16:55;100319.47;;;19.35;100.00
30967;BME280;17649;51.836;8.330;2023-09-18T00:19:57;100315.72;;;19.38;100.00
30967;BME280;17649;51.836;8.330;2023-09-18T00:22:57;100307.84;;;19.38;100.00
30967;BME280;17649;51.836;8.330;2023-09-18T00:25:58;100296.25;;;19.40;100.00
30967;BME280;17649;51.836;8.330;2023-09-18T00:28:58;100279.97;;;19.36;100.00
30967;BME280;17649;51.836;8.330;2023-09-18T00:31:58;100272.78;;;19.39;100.00
30967;BME280;17649;51.836;8.330;2023-09-18T00:34:59;100271.44;;;19.34;100.00
30967;BME280;17649;51.836;8.330;2023-09-18T00:37:59;100266.03;;;19.36;100.00
30967;BME280;17649;51.836;8.330;2023-09-18T00:41:03;100266.31;;;19.33;100.00
30967;BME280;17649;51.836;8.330;2023-09-18T00:44:04;100260.53;;;19.29;100.00
30967;BME280;17649;51.836;8.330;2023-09-18T00:47:07;100262.13;;;19.22;100.00
30967;BME280;17649;51.836;8.330;2023-09-18T00:50:09;100256.13;;;19.30;100.00
30967;BME280;17649;51.836;8.330;2023-09-18T00:53:20;100249.22;;;19.29;100.00
30967;BME280;17649;51.836;8.330;2023-09-18T00:56:21;100253.97;;;19.25;100.00
30967;BME280;17649;51.836;8.330;2023-09-18T00:59:21;100242.63;;;19.25;100.00
30967;BME280;17649;51.836;8.330;2023-09-18T01:02:22;100234.94;;;19.23;100.00
30967;BME280;17649;51.836;8.330;2023-09-18T01:05:22;100229.16;;;19.20;100.00
30967;BME280;17649;51.836;8.330;2023-09-18T01:08:26;100223.75;;;19.21;100.00
30967;BME280;17649;51.836;8.330;2023-09-18T01:14:50;100218.66;;;19.20;100.00
30967;BME280;17649;51.836;8.330;2023-09-18T01:17:55;100212.06;;;19.16;100.00
30967;BME280;17649;51.836;8.330;2023-09-18T01:20:55;100205.16;;;19.15;100.00
30967;BME280;17649;51.836;8.330;2023-09-18T01:23:56;100202.84;;;19.12;100.00
30967;BME280;17649;51.836;8.330;2023-09-18T01:26:56;100197.28;;;19.15;100.00
30967;BME280;17649;51.836;8.330;2023-09-18T01:29:56;100186.66;;;19.16;100.00
30967;BME280;17649;51.836;8.330;2023-09-18T01:32:58;100176.16;;;19.16;100.00
30967;BME280;17649;51.836;8.330;2023-09-18T01:36:01;100164.34;;;19.12;100.00
30967;BME280;17649;51.836;8.330;2023-09-18T01:39:02;100157.81;;;19.16;100.00
30967;BME280;17649;51.836;8.330;2023-09-18T01:42:04;100155.72;;;19.20;100.00
30967;BME280;17649;51.836;8.330;2023-09-18T01:45:09;100164.41;;;19.20;100.00
30967;BME280;17649;51.836;8.330;2023-09-18T01:48:10;100152.50;;;19.26;100.00
30967;BME280;17649;51.836;8.330;2023-09-18T01:51:13;100157.06;;;19.24;100.00
30967;BME280;17649;51.836;8.330;2023-09-18T01:54:14;100160.56;;;19.32;100.00
30967;BME280;17649;51.836;8.330;2023-09-18T01:57:14;100152.41;;;19.35;100.00
30967;BME280;17649;51.836;8.330;2023-09-18T02:00:15;100150.06;;;19.32;100.00
30967;BME280;17649;51.836;8.330;2023-09-18T02:03:15;100153.31;;;19.26;100.00
30967;BME280;17649;51.836;8.330;2023-09-18T02:06:18;100159.53;;;19.25;100.00
30967;BME280;17649;51.836;8.330;2023-09-18T02:09:18;100149.34;;;19.22;100.00
30967;BME280;17649;51.836;8.330;2023-09-18T02:12:19;100145.25;;;19.20;100.00
30967;BME280;17649;51.836;8.330;2023-09-18T02:15:20;100145.34;;;19.18;100.00
30967;BME280;17649;51.836;8.330;2023-09-18T02:18:20;100138.56;;;19.25;100.00
30967;BME280;17649;51.836;8.330;2023-09-18T02:21:21;100139.88;;;19.29;100.00
30967;BME280;17649;51.836;8.330;2023-09-18T02:24:21;100132.53;;;19.33;100.00
30967;BME280;17649;51.836;8.330;2023-09-18T02:27:23;100127.00;;;19.36;100.00
30967;BME280;17649;51.836;8.330;2023-09-18T02:30:24;100107.84;;;19.44;100.00
30967;BME280;17649;51.836;8.330;2023-09-18T02:33:25;100107.38;;;19.48;100.00
30967;BME280;17649;51.836;8.330;2023-09-18T02:36:25;100114.06;;;19.60;100.00
30967;BME280;17649;51.836;8.330;2023-09-18T02:39:26;100100.19;;;19.68;100.00
30967;BME280;17649;51.836;8.330;2023-09-18T02:42:26;100084.13;;;19.71;100.00
30967;BME280;17649;51.836;8.330;2023-09-18T02:45:26;100083.63;;;19.76;100.00
30967;BME280;17649;51.836;8.330;2023-09-18T02:48:27;100081.88;;;19.84;100.00
30967;BME280;17649;51.836;8.330;2023-09-18T02:51:27;100070.06;;;19.80;100.00
30967;BME280;17649;51.836;8.330;2023-09-18T02:54:27;100062.03;;;19.82;100.00
30967;BME280;17649;51.836;8.330;2023-09-18T02:57:28;100052.03;;;19.85;100.00
30967;BME280;17649;51.836;8.330;2023-09-18T03:00:28;100048.94;;;19.90;100.00
30967;BME280;17649;51.836;8.330;2023-09-18T03:03:28;100037.94;;;19.86;100.00
30967;BME280;17649;51.836;8.330;2023-09-18T03:06:29;100030.38;;;19.91;100.00
30967;BME280;17649;51.836;8.330;2023-09-18T03:09:29;100029.72;;;19.89;100.00
30967;BME280;17649;51.836;8.330;2023-09-18T03:12:29;100027.16;;;19.98;100.00
30967;BME280;17649;51.836;8.330;2023-09-18T03:15:30;100024.22;;;20.09;100.00
30967;BME280;17649;51.836;8.330;2023-09-18T03:18:30;100008.97;;;20.12;100.00
30967;BME280;17649;51.836;8.330;2023-09-18T03:21:31;100006.50;;;20.19;100.00
30967;BME280;17649;51.836;8.330;2023-09-18T03:24:33;99995.38;;;20.25;100.00
30967;BME280;17649;51.836;8.330;2023-09-18T03:27:34;99992.25;;;20.30;100.00
30967;BME280;17649;51.836;8.330;2023-09-18T03:30:34;99985.03;;;20.32;100.00
30967;BME280;17649;51.836;8.330;2023-09-18T03:33:34;99970.09;;;20.40;100.00
30967;BME280;17649;51.836;8.330;2023-09-18T03:36:34;99960.91;;;20.52;100.00
30967;BME280;17649;51.836;8.330;2023-09-18T03:39:36;99953.53;;;20.64;100.00
30967;BME280;17649;51.836;8.330;2023-09-18T03:42:37;99947.63;;;20.70;100.00
30967;BME280;17649;51.836;8.330;2023-09-18T03:45:38;99967.31;;;20.82;100.00
30967;BME280;17649;51.836;8.330;2023-09-18T03:48:41;99966.31;;;20.92;100.00
30967;BME280;17649;51.836;8.330;2023-09-18T03:51:41;99963.19;;;20.96;100.00
30967;BME280;17649;51.836;8.330;2023-09-18T03:54:41;99950.84;;;20.97;100.00
30967;BME280;17649;51.836;8.330;2023-09-18T03:57:42;99944.94;;;20.95;100.00
30967;BME280;17649;51.836;8.330;2023-09-18T04:00:42;99930.63;;;20.97;100.00
30967;BME280;17649;51.836;8.330;2023-09-18T04:03:43;99922.09;;;21.03;100.00
30967;BME280;17649;51.836;8.330;2023-09-18T04:06:43;99911.44;;;20.89;100.00
30967;BME280;17649;51.836;8.330;2023-09-18T04:09:45;99904.56;;;20.88;100.00
30967;BME280;17649;51.836;8.330;2023-09-18T04:12:46;99909.81;;;20.88;100.00
30967;BME280;17649;51.836;8.330;2023-09-18T04:15:46;99903.38;;;20.90;100.00
30967;BME280;17649;51.836;8.330;2023-09-18T04:18:46;99890.56;;;20.95;100.00
30967;BME280;17649;51.836;8.330;2023-09-18T04:21:47;99885.94;;;20.97;100.00
30967;BME280;17649;51.836;8.330;2023-09-18T04:24:48;99882.66;;;21.03;100.00
30967;BME280;17649;51.836;8.330;2023-09-18T04:27:49;99866.72;;;20.97;100.00
30967;BME280;17649;51.836;8.330;2023-09-18T04:30:51;99861.31;;;20.98;100.00
30967;BME280;17649;51.836;8.330;2023-09-18T04:33:51;99859.16;;;21.02;100.00
30967;BME280;17649;51.836;8.330;2023-09-18T04:36:52;99870.31;;;21.04;100.00
30967;BME280;17649;51.836;8.330;2023-09-18T04:39:52;99869.50;;;21.03;100.00
30967;BME280;17649;51.836;8.330;2023-09-18T04:42:52;99867.63;;;21.12;100.00
30967;BME280;17649;51.836;8.330;2023-09-18T04:45:53;99858.78;;;21.13;100.00
30967;BME280;17649;51.836;8.330;2023-09-18T04:48:53;99871.41;;;21.18;100.00
30967;BME280;17649;51.836;8.330;2023-09-18T04:51:54;99863.53;;;21.18;100.00
30967;BME280;17649;51.836;8.330;2023-09-18T04:54:54;99857.63;;;21.16;100.00
30967;BME280;17649;51.836;8.330;2023-09-18T04:57:55;99862.19;;;21.22;100.00
30967;BME280;17649;51.836;8.330;2023-09-18T05:00:59;99852.97;;;21.26;100.00
30967;BME280;17649;51.836;8.330;2023-09-18T05:04:00;99853.13;;;21.24;100.00
30967;BME280;17649;51.836;8.330;2023-09-18T05:07:00;99859.72;;;21.20;100.00
30967;BME280;17649;51.836;8.330;2023-09-18T05:10:03;99865.00;;;21.20;100.00
30967;BME280;17649;51.836;8.330;2023-09-18T05:13:04;99890.81;;;21.17;100.00
30967;BME280;17649;51.836;8.330;2023-09-18T05:16:05;99876.69;;;21.18;100.00
30967;BME280;17649;51.836;8.330;2023-09-18T05:19:05;99889.38;;;21.14;100.00
30967;BME280;17649;51.836;8.330;2023-09-18T05:22:07;99873.78;;;20.96;100.00
30967;BME280;17649;51.836;8.330;2023-09-18T05:25:09;99872.78;;;21.05;100.00
30967;BME280;17649;51.836;8.330;2023-09-18T05:28:10;99875.16;;;20.76;100.00
30967;BME280;17649;51.836;8.330;2023-09-18T05:31:11;99868.22;;;20.99;100.00
30967;BME280;17649;51.836;8.330;2023-09-18T05:34:12;99848.28;;;21.05;100.00
30967;BME280;17649;51.836;8.330;2023-09-18T05:37:12;99842.16;;;21.12;100.00
30967;BME280;17649;51.836;8.330;2023-09-18T05:40:13;99838.88;;;21.19;100.00
30967;BME280;17649;51.836;8.330;2023-09-18T05:43:14;99828.97;;;21.21;100.00
30967;BME280;17649;51.836;8.330;2023-09-18T05:46:14;99835.56;;;21.25;100.00
30967;BME280;17649;51.836;8.330;2023-09-18T05:49:15;99832.59;;;21.20;100.00
30967;BME280;17649;51.836;8.330;2023-09-18T05:52:15;99844.78;;;21.29;100.00
30967;BME280;17649;51.836;8.330;2023-09-18T05:55:15;99846.34;;;21.38;100.00
30967;BME280;17649;51.836;8.330;2023-09-18T05:58:16;99848.81;;;21.39;100.00
30967;BME280;17649;51.836;8.330;2023-09-18T06:01:19;99849.31;;;21.43;100.00
30967;BME280;17649;51.836;8.330;2023-09-18T06:04:20;99860.59;;;21.52;100.00
30967;BME280;17649;51.836;8.330;2023-09-18T06:07:21;99856.44;;;21.57;100.00
30967;BME280;17649;51.836;8.330;2023-09-18T06:10:24;99855.41;;;21.66;100.00
30967;BME280;17649;51.836;8.330;2023-09-18T06:13:24;99857.69;;;21.69;100.00
30967;BME280;17649;51.836;8.330;2023-09-18T06:16:25;99850.28;;;21.73;100.00
30967;BME280;17649;51.836;8.330;2023-09-18T06:19:26;99865.53;;;21.78;100.00
30967;BME280;17649;51.836;8.330;2023-09-18T06:22:26;99865.00;;;21.82;100.00
30967;BME280;17649;51.836;8.330;2023-09-18T06:25:27;99848.16;;;21.91;100.00
30967;BME280;17649;51.836;8.330;2023-09-18T06:28:28;99867.19;;;21.79;100.00
30967;BME280;17649;51.836;8.330;2023-09-18T06:31:28;99886.66;;;21.92;100.00
30967;BME280;17649;51.836;8.330;2023-09-18T06:34:32;99882.81;;;22.03;100.00
30967;BME280;17649;51.836;8.330;2023-09-18T06:37:32;99889.84;;;22.11;100.00
30967;BME280;17649;51.836;8.330;2023-09-18T06:40:33;99875.81;;;22.18;100.00
30967;BME280;17649;51.836;8.330;2023-09-18T06:43:33;99873.28;;;22.25;100.00
30967;BME280;17649;51.836;8.330;2023-09-18T06:46:33;99876.03;;;22.46;100.00
30967;BME280;17649;51.836;8.330;2023-09-18T06:49:34;99874.63;;;22.73;100.00
30967;BME280;17649;51.836;8.330;2023-09-18T06:52:34;99874.78;;;22.95;100.00
30967;BME280;17649;51.836;8.330;2023-09-18T06:55:35;99870.38;;;23.02;100.00
30967;BME280;17649;51.836;8.330;2023-09-18T06:58:35;99868.75;;;23.01;100.00
30967;BME280;17649;51.836;8.330;2023-09-18T07:01:36;99884.84;;;22.91;100.00
30967;BME280;17649;51.836;8.330;2023-09-18T07:04:36;99879.38;;;22.78;100.00
30967;BME280;17649;51.836;8.330;2023-09-18T07:07:46;99876.44;;;22.73;100.00
30967;BME280;17649;51.836;8.330;2023-09-18T07:10:50;99875.78;;;22.94;100.00
30967;BME280;17649;51.836;8.330;2023-09-18T07:13:50;99878.59;;;23.07;100.00
30967;BME280;17649;51.836;8.330;2023-09-18T07:16:51;99882.22;;;23.06;100.00
30967;BME280;17649;51.836;8.330;2023-09-18T07:19:52;99880.81;;;23.39;100.00
30967;BME280;17649;51.836;8.330;2023-09-18T07:22:53;99882.94;;;23.29;100.00
30967;BME280;17649;51.836;8.330;2023-09-18T07:25:53;99875.81;;;23.44;100.00
30967;BME280;17649;51.836;8.330;2023-09-18T07:28:54;99898.38;;;23.47;100.00
30967;BME280;17649;51.836;8.330;2023-09-18T07:31:54;99904.22;;;23.57;100.00
30967;BME280;17649;51.836;8.330;2023-09-18T07:34:55;99906.75;;;23.36;100.00
30967;BME280;17649;51.836;8.330;2023-09-18T07:37:55;99904.13;;;23.21;100.00
30967;BME280;17649;51.836;8.330;2023-09-18T07:40:58;99898.69;;;23.08;100.00
30967;BME280;17649;51.836;8.330;2023-09-18T07:43:59;99894.50;;;23.28;100.00
30967;BME280;17649;51.836;8.330;2023-09-18T07:46:59;99897.38;;;23.33;100.00
30967;BME280;17649;51.836;8.330;2023-09-18T07:50:01;99904.41;;;23.11;100.00
30967;BME280;17649;51.836;8.330;2023-09-18T07:53:02;99905.94;;;23.06;100.00
30967;BME280;17649;51.836;8.330;2023-09-18T07:56:03;99903.56;;;22.81;100.00
30967;BME280;17649;51.836;8.330;2023-09-18T07:59:05;99921.69;;;22.61;100.00
30967;BME280;17649;51.836;8.330;2023-09-18T08:02:06;99905.63;;;22.56;100.00
30967;BME280;17649;51.836;8.330;2023-09-18T08:05:06;99902.59;;;22.45;100.00
30967;BME280;17649;51.836;8.330;2023-09-18T08:08:08;99917.88;;;22.49;100.00
30967;BME280;17649;51.836;8.330;2023-09-18T08:11:08;99922.66;;;22.46;100.00
30967;BME280;17649;51.836;8.330;2023-09-18T08:14:09;99925.78;;;22.49;100.00
30967;BME280;17649;51.836;8.330;2023-09-18T08:17:09;99925.59;;;22.51;100.00
30967;BME280;17649;51.836;8.330;2023-09-18T08:20:10;99922.50;;;22.47;100.00
30967;BME280;17649;51.836;8.330;2023-09-18T08:23:13;99929.06;;;22.51;100.00
30967;BME280;17649;51.836;8.330;2023-09-18T08:26:14;99935.56;;;22.78;100.00
30967;BME280;17649;51.836;8.330;2023-09-18T08:29:14;99940.28;;;22.68;100.00
30967;BME280;17649;51.836;8.330;2023-09-18T08:32:15;99921.72;;;22.76;100.00
30967;BME280;17649;51.836;8.330;2023-09-18T08:35:15;99923.41;;;22.77;100.00
30967;BME280;17649;51.836;8.330;2023-09-18T08:38:16;99947.56;;;22.66;100.00
30967;BME280;17649;51.836;8.330;2023-09-18T08:41:18;99961.47;;;22.75;100.00
30967;BME280;17649;51.836;8.330;2023-09-18T08:44:19;99948.69;;;22.86;100.00
30967;BME280;17649;51.836;8.330;2023-09-18T08:47:20;99939.97;;;23.01;100.00
30967;BME280;17649;51.836;8.330;2023-09-18T08:50:21;99948.72;;;23.01;100.00
30967;BME280;17649;51.836;8.330;2023-09-18T08:53:22;99941.19;;;23.28;100.00
30967;BME280;17649;51.836;8.330;2023-09-18T08:56:23;99933.19;;;23.06;100.00
30967;BME280;17649;51.836;8.330;2023-09-18T08:59:25;99931.88;;;23.02;100.00
30967;BME280;17649;51.836;8.330;2023-09-18T09:02:25;99935.63;;;22.93;100.00
30967;BME280;17649;51.836;8.330;2023-09-18T09:05:26;99922.34;;;23.16;100.00
30967;BME280;17649;51.836;8.330;2023-09-18T09:08:28;99918.31;;;23.20;100.00
30967;BME280;17649;51.836;8.330;2023-09-18T09:11:29;99938.16;;;23.31;100.00
30967;BME280;17649;51.836;8.330;2023-09-18T09:14:31;99943.00;;;23.27;100.00
30967;BME280;17649;51.836;8.330;2023-09-18T09:17:32;99942.16;;;23.56;100.00
30967;BME280;17649;51.836;8.330;2023-09-18T09:20:33;99931.25;;;23.15;100.00
30967;BME280;17649;51.836;8.330;2023-09-18T09:24:01;99932.06;;;23.15;100.00
30967;BME280;17649;51.836;8.330;2023-09-18T09:27:03;99944.44;;;23.30;100.00
30967;BME280;17649;51.836;8.330;2023-09-18T09:30:04;99939.81;;;23.17;100.00
30967;BME280;17649;51.836;8.330;2023-09-18T09:33:05;99942.44;;;23.02;100.00
30967;BME280;17649;51.836;8.330;2023-09-18T09:36:07;99938.91;;;23.39;100.00
30967;BME280;17649;51.836;8.330;2023-09-18T09:39:10;99941.00;;;23.14;100.00
30967;BME280;17649;51.836;8.330;2023-09-18T09:42:11;99942.56;;;23.09;100.00
30967;BME280;17649;51.836;8.330;2023-09-18T09:45:13;99966.81;;;23.04;100.00
30967;BME280;17649;51.836;8.330;2023-09-18T09:48:16;99952.09;;;23.10;100.00
30967;BME280;17649;51.836;8.330;2023-09-18T09:51:17;99934.16;;;23.20;100.00
30967;BME280;17649;51.836;8.330;2023-09-18T09:54:32;99935.16;;;23.04;100.00
30967;BME280;17649;51.836;8.330;2023-09-18T09:57:47;99944.53;;;23.51;100.00
30967;BME280;17649;51.836;8.330;2023-09-18T10:00:51;99954.19;;;23.59;100.00
30967;BME280;17649;51.836;8.330;2023-09-18T10:03:55;99959.63;;;23.72;100.00
30967;BME280;17649;51.836;8.330;2023-09-18T10:07:05;99940.41;;;23.78;100.00
30967;BME280;17649;51.836;8.330;2023-09-18T10:10:09;99955.28;;;24.22;100.00
30967;BME280;17649;51.836;8.330;2023-09-18T10:13:13;99954.41;;;24.15;100.00
30967;BME280;17649;51.836;8.330;2023-09-18T10:16:17;99952.50;;;24.45;100.00
30967;BME280;17649;51.836;8.330;2023-09-18T10:19:34;99958.81;;;24.29;100.00
30967;BME280;17649;51.836;8.330;2023-09-18T10:22:43;99968.28;;;24.38;100.00
30967;BME280;17649;51.836;8.330;2023-09-18T10:25:47;99958.56;;;24.66;100.00
30967;BME280;17649;51.836;8.330;2023-09-18T10:28:53;99969.19;;;24.09;100.00
30967;BME280;17649;51.836;8.330;2023-09-18T10:31:56;99964.00;;;24.37;100.00
30967;BME280;17649;51.836;8.330;2023-09-18T10:34:57;99955.28;;;24.22;100.00
30967;BME280;17649;51.836;8.330;2023-09-18T10:38:01;99983.72;;;24.56;100.00
30967;BME280;17649;51.836;8.330;2023-09-18T10:41:02;99975.81;;;24.20;100.00
30967;BME280;17649;51.836;8.330;2023-09-18T10:44:06;99961.94;;;24.32;100.00
30967;BME280;17649;51.836;8.330;2023-09-18T10:47:08;99970.22;;;24.51;100.00
30967;BME280;17649;51.836;8.330;2023-09-18T10:50:10;99968.38;;;24.08;100.00
30967;BME280;17649;51.836;8.330;2023-09-18T10:53:12;99954.78;;;24.76;100.00
30967;BME280;17649;51.836;8.330;2023-09-18T10:56:17;99953.34;;;24.52;100.00
30967;BME280;17649;51.836;8.330;2023-09-18T10:59:20;99963.72;;;24.11;100.00
30967;BME280;17649;51.836;8.330;2023-09-18T11:02:21;99966.00;;;24.35;100.00
30967;BME280;17649;51.836;8.330;2023-09-18T11:05:32;99953.13;;;23.89;100.00
30967;BME280;17649;51.836;8.330;2023-09-18T11:09:03;99969.38;;;24.07;100.00
30967;BME280;17649;51.836;8.330;2023-09-18T11:12:04;99970.31;;;24.21;100.00
30967;BME280;17649;51.836;8.330;2023-09-18T11:15:05;99971.38;;;24.91;100.00
30967;BME280;17649;51.836;8.330;2023-09-18T11:18:07;99962.56;;;24.84;100.00
30967;BME280;17649;51.836;8.330;2023-09-18T11:21:09;99960.09;;;25.04;100.00
30967;BME280;17649;51.836;8.330;2023-09-18T11:24:18;99966.88;;;24.63;100.00
30967;BME280;17649;51.836;8.330;2023-09-18T11:27:24;99950.19;;;25.60;100.00
30967;BME280;17649;51.836;8.330;2023-09-18T11:30:25;99924.41;;;27.21;100.00
30967;BME280;17649;51.836;8.330;2023-09-18T11:33:39;99929.91;;;28.15;100.00
30967;BME280;17649;51.836;8.330;2023-09-18T11:36:40;99921.72;;;28.67;100.00
30967;BME280;17649;51.836;8.330;2023-09-18T11:39:41;99927.44;;;27.82;100.00
30967;BME280;17649;51.836;8.330;2023-09-18T11:46:30;99921.47;;;29.96;100.00
30967;BME280;17649;51.836;8.330;2023-09-18T11:49:31;99926.56;;;27.95;100.00
30967;BME280;17649;51.836;8.330;2023-09-18T11:52:34;99933.28;;;27.59;100.00
30967;BME280;17649;51.836;8.330;2023-09-18T11:55:35;99933.09;;;28.31;100.00
30967;BME280;17649;51.836;8.330;2023-09-18T11:58:51;99926.91;;;26.89;100.00
30967;BME280;17649;51.836;8.330;2023-09-18T12:01:54;99943.88;;;26.62;100.00
30967;BME280;17649;51.836;8.330;2023-09-18T12:05:19;99925.72;;;26.26;100.00
30967;BME280;17649;51.836;8.330;2023-09-18T12:08:20;99916.69;;;26.99;100.00
30967;BME280;17649;51.836;8.330;2023-09-18T12:11:21;99922.69;;;26.42;100.00
30967;BME280;17649;51.836;8.330;2023-09-18T12:14:23;99926.88;;;25.90;100.00
30967;BME280;17649;51.836;8.330;2023-09-18T12:17:23;99912.59;;;25.30;100.00
30967;BME280;17649;51.836;8.330;2023-09-18T12:20:24;99904.53;;;25.10;100.00
30967;BME280;17649;51.836;8.330;2023-09-18T12:23:24;99911.53;;;25.24;100.00
30967;BME280;17649;51.836;8.330;2023-09-18T12:26:25;99932.63;;;25.46;100.00
30967;BME280;17649;51.836;8.330;2023-09-18T12:29:26;99944.81;;;25.06;100.00
30967;BME280;17649;51.836;8.330;2023-09-18T12:32:26;99921.78;;;25.34;100.00
30967;BME280;17649;51.836;8.330;2023-09-18T12:35:28;99933.50;;;25.66;100.00
30967;BME280;17649;51.836;8.330;2023-09-18T12:38:30;99924.31;;;25.62;100.00
30967;BME280;17649;51.836;8.330;2023-09-18T12:41:31;99914.88;;;26.14;100.00
30967;BME280;17649;51.836;8.330;2023-09-18T12:44:32;99917.97;;;26.84;100.00
30967;BME280;17649;51.836;8.330;2023-09-18T12:47:33;99903.78;;;28.06;100.00
30967;BME280;17649;51.836;8.330;2023-09-18T12:50:34;99881.59;;;28.68;100.00
30967;BME280;17649;51.836;8.330;2023-09-18T12:53:35;99894.16;;;29.71;100.00
30967;BME280;17649;51.836;8.330;2023-09-18T12:56:40;99891.28;;;30.49;100.00
30967;BME280;17649;51.836;8.330;2023-09-18T12:59:41;99885.53;;;30.64;100.00
30967;BME280;17649;51.836;8.330;2023-09-18T13:02:44;99881.13;;;29.33;100.00
30967;BME280;17649;51.836;8.330;2023-09-18T13:05:46;99885.44;;;28.22;100.00
30967;BME280;17649;51.836;8.330;2023-09-18T13:08:49;99882.16;;;27.19;100.00
30967;BME280;17649;51.836;8.330;2023-09-18T13:11:56;99869.56;;;26.88;100.00
30967;BME280;17649;51.836;8.330;2023-09-18T13:15:00;99875.31;;;28.38;100.00
30967;BME280;17649;51.836;8.330;2023-09-18T13:18:16;99887.66;;;28.26;100.00
30967;BME280;17649;51.836;8.330;2023-09-18T13:21:16;99860.81;;;29.02;100.00
30967;BME280;17649;51.836;8.330;2023-09-18T13:24:38;99864.44;;;28.83;100.00
30967;BME280;17649;51.836;8.330;2023-09-18T13:27:39;99871.72;;;27.62;100.00
30967;BME280;17649;51.836;8.330;2023-09-18T13:30:41;99877.34;;;27.86;100.00
30967;BME280;17649;51.836;8.330;2023-09-18T13:33:42;99870.34;;;28.48;100.00
30967;BME280;17649;51.836;8.330;2023-09-18T13:36:45;99866.38;;;29.79;100.00
30967;BME280;17649;51.836;8.330;2023-09-18T13:39:45;99873.53;;;30.32;100.00
30967;BME280;17649;51.836;8.330;2023-09-18T13:42:45;99870.25;;;28.55;100.00
30967;BME280;17649;51.836;8.330;2023-09-18T13:45:48;99871.53;;;27.96;100.00
30967;BME280;17649;51.836;8.330;2023-09-18T13:48:51;99873.50;;;26.53;100.00
30967;BME280;17649;51.836;8.330;2023-09-18T13:51:52;99861.88;;;26.27;100.00
30967;BME280;17649;51.836;8.330;2023-09-18T13:54:52;99868.38;;;26.31;100.00
30967;BME280;17649;51.836;8.330;2023-09-18T13:57:53;99866.59;;;26.38;100.00
30967;BME280;17649;51.836;8.330;2023-09-18T14:00:53;99872.03;;;25.84;100.00
30967;BME280;17649;51.836;8.330;2023-09-18T14:03:54;99871.09;;;25.57;100.00
30967;BME280;17649;51.836;8.330;2023-09-18T14:06:54;99873.84;;;25.16;100.00
30967;BME280;17649;51.836;8.330;2023-09-18T14:09:55;99866.56;;;24.96;100.00
30967;BME280;17649;51.836;8.330;2023-09-18T14:12:56;99871.03;;;24.96;100.00
30967;BME280;17649;51.836;8.330;2023-09-18T14:15:57;99869.09;;;24.77;100.00
30967;BME280;17649;51.836;8.330;2023-09-18T14:18:58;99868.94;;;24.50;100.00
30967;BME280;17649;51.836;8.330;2023-09-18T14:21:59;99866.19;;;24.37;100.00
30967;BME280;17649;51.836;8.330;2023-09-18T14:25:04;99853.16;;;24.35;100.00
30967;BME280;17649;51.836;8.330;2023-09-18T14:28:06;99880.59;;;24.13;100.00
30967;BME280;17649;51.836;8.330;2023-09-18T14:31:06;99891.09;;;24.28;100.00
30967;BME280;17649;51.836;8.330;2023-09-18T14:34:07;99882.31;;;25.46;100.00
30967;BME280;17649;51.836;8.330;2023-09-18T14:37:09;99865.00;;;27.15;100.00
30967;BME280;17649;51.836;8.330;2023-09-18T14:40:10;99864.56;;;28.01;100.00
30967;BME280;17649;51.836;8.330;2023-09-18T14:43:11;99857.72;;;26.84;100.00
30967;BME280;17649;51.836;8.330;2023-09-18T14:46:13;99859.66;;;25.37;100.00
30967;BME280;17649;51.836;8.330;2023-09-18T14:49:13;99862.69;;;25.34;100.00
30967;BME280;17649;51.836;8.330;2023-09-18T14:52:14;99865.34;;;24.99;100.00
30967;BME280;17649;51.836;8.330;2023-09-18T14:55:16;99854.88;;;25.73;100.00
30967;BME280;17649;51.836;8.330;2023-09-18T14:58:16;99844.69;;;26.83;100.00
30967;BME280;17649;51.836;8.330;2023-09-18T15:01:18;99832.81;;;29.11;100.00
30967;BME280;17649;51.836;8.330;2023-09-18T15:04:20;99834.53;;;28.19;100.00
30967;BME280;17649;51.836;8.330;2023-09-18T15:07:22;99834.94;;;27.28;100.00
30967;BME280;17649;51.836;8.330;2023-09-18T15:10:25;99835.75;;;26.57;100.00
30967;BME280;17649;51.836;8.330;2023-09-18T15:13:27;99841.69;;;25.93;100.00
30967;BME280;17649;51.836;8.330;2023-09-18T15:16:27;99842.09;;;25.90;100.00
30967;BME280;17649;51.836;8.330;2023-09-18T15:19:29;99828.00;;;25.76;100.00
30967;BME280;17649;51.836;8.330;2023-09-18T15:22:30;99821.84;;;25.63;100.00
30967;BME280;17649;51.836;8.330;2023-09-18T15:25:32;99817.91;;;25.39;100.00
30967;BME280;17649;51.836;8.330;2023-09-18T15:28:35;99822.72;;;25.15;100.00
30967;BME280;17649;51.836;8.330;2023-09-18T15:31:37;99829.28;;;24.85;100.00
30967;BME280;17649;51.836;8.330;2023-09-18T15:34:38;99824.25;;;24.62;100.00
30967;BME280;17649;51.836;8.330;2023-09-18T15:37:39;99823.28;;;24.69;100.00
30967;BME280;17649;51.836;8.330;2023-09-18T15:40:39;99819.38;;;24.65;100.00
30967;BME280;17649;51.836;8.330;2023-09-18T15:43:39;99830.38;;;24.62;100.00
30967;BME280;17649;51.836;8.330;2023-09-18T15:46:42;99822.47;;;25.10;100.00
30967;BME280;17649;51.836;8.330;2023-09-18T15:49:43;99818.06;;;25.17;100.00
30967;BME280;17649;51.836;8.330;2023-09-18T15:52:43;99814.81;;;25.28;100.00
30967;BME280;17649;51.836;8.330;2023-09-18T15:55:44;99809.50;;;24.81;100.00